createdAt,value
2022-11-06T21:02:08.216Z,23.30
2022-11-06T21:03:08.849Z,21.30
2022-11-06T21:04:10.766Z,12.60
2022-11-06T21:05:08.078Z,13.40
2022-11-06T21:06:08.108Z,11.30
2022-11-06T21:07:08.068Z,12.40
2022-11-06T21:08:08.069Z,12.50
2022-11-06T21:09:08.049Z,10.90
2022-11-06T21:10:08.047Z,12.60
2022-11-06T21:11:08.012Z,10.10
2022-11-06T21:12:07.985Z,11.80
2022-11-06T21:13:12.200Z,16.30
2022-11-06T21:14:08.026Z,24.70
2022-11-06T21:15:07.966Z,28.30
2022-11-06T21:16:07.981Z,31.50
2022-11-06T21:17:07.914Z,28.00
2022-11-06T21:18:07.902Z,28.20
2022-11-06T21:19:07.944Z,29.00
2022-11-06T21:20:07.883Z,33.60
2022-11-06T21:21:07.884Z,37.80
2022-11-06T21:22:07.880Z,37.40
2022-11-06T21:23:07.997Z,34.10
2022-11-06T21:24:07.844Z,33.30
2022-11-06T21:25:07.837Z,31.00
2022-11-06T21:26:07.869Z,30.60
2022-11-06T21:27:07.792Z,29.70
2022-11-06T21:28:07.840Z,31.10
2022-11-06T21:29:07.762Z,29.00
2022-11-06T21:30:07.762Z,24.80
2022-11-06T21:31:07.813Z,25.60
2022-11-06T21:32:07.774Z,25.00
2022-11-06T21:33:07.714Z,25.50
2022-11-06T21:34:07.711Z,21.80
2022-11-06T21:35:07.740Z,20.70
2022-11-06T21:36:07.690Z,24.00
2022-11-06T21:37:07.651Z,20.20
2022-11-06T21:38:07.780Z,20.70
2022-11-06T21:39:07.640Z,21.00
2022-11-06T21:40:07.698Z,19.60
2022-11-06T21:41:07.647Z,22.60
2022-11-06T21:42:07.588Z,24.60
2022-11-06T21:43:07.585Z,45.80
2022-11-06T21:44:07.638Z,26.00
2022-11-06T21:45:12.303Z,25.30
2022-11-06T21:46:08.595Z,24.30
2022-11-06T21:47:07.584Z,23.20
2022-11-06T21:48:14.812Z,20.10
2022-11-06T21:49:08.592Z,20.30
2022-11-06T21:50:07.560Z,22.30
2022-11-06T21:51:07.541Z,20.30
2022-11-06T21:52:07.509Z,20.70
2022-11-06T21:53:07.454Z,17.60
2022-11-06T21:54:07.529Z,18.60
2022-11-06T21:55:07.482Z,17.40
2022-11-06T21:56:07.453Z,16.20
2022-11-06T21:57:07.404Z,17.30
2022-11-06T21:58:07.384Z,18.70
2022-11-06T21:59:07.452Z,17.60
2022-11-06T22:00:07.372Z,17.20
2022-11-06T22:01:07.390Z,17.80
2022-11-06T22:02:07.451Z,19.00
2022-11-06T22:03:07.319Z,18.50
2022-11-06T22:04:07.363Z,17.70
2022-11-06T22:05:07.352Z,18.30
2022-11-06T22:06:07.336Z,15.30
2022-11-06T22:07:07.269Z,16.80
2022-11-06T22:08:07.281Z,17.20
2022-11-06T22:09:07.285Z,16.10
2022-11-06T22:10:07.250Z,14.30
2022-11-06T22:11:07.238Z,13.00
2022-11-06T22:12:07.229Z,12.40
2022-11-06T22:13:07.229Z,15.20
2022-11-06T22:14:07.185Z,10.30
2022-11-06T22:15:07.208Z,8.80
2022-11-06T22:16:07.171Z,9.10
2022-11-06T22:17:07.164Z,8.80
2022-11-06T22:18:07.139Z,10.10
2022-11-06T22:19:07.105Z,8.80
2022-11-06T22:20:07.125Z,11.20
2022-11-06T22:21:07.156Z,8.70
2022-11-06T22:22:07.104Z,10.00
2022-11-06T22:23:07.106Z,7.90
2022-11-06T22:24:07.051Z,12.10
2022-11-06T22:25:07.053Z,8.90
2022-11-06T22:26:07.189Z,10.10
2022-11-06T22:27:07.023Z,9.10
2022-11-06T22:28:07.029Z,12.30
2022-11-06T22:29:07.002Z,10.60
2022-11-06T22:30:06.971Z,10.10
2022-11-06T22:31:06.979Z,8.10
2022-11-06T22:32:06.970Z,7.60
2022-11-06T22:33:06.940Z,7.10
2022-11-06T22:34:06.941Z,7.20
2022-11-06T22:35:06.920Z,7.20
2022-11-06T22:36:06.901Z,7.90
2022-11-06T22:37:06.899Z,8.20
2022-11-06T22:38:06.892Z,7.00
2022-11-06T22:39:06.871Z,7.10
2022-11-06T22:40:06.848Z,8.10
2022-11-06T22:41:06.860Z,5.00
2022-11-06T22:42:06.817Z,5.50
2022-11-06T22:43:06.828Z,7.00
2022-11-06T22:44:06.832Z,5.60
2022-11-06T22:45:06.787Z,3.50
2022-11-06T22:46:06.768Z,2.80
2022-11-06T22:47:06.768Z,3.60
2022-11-06T22:48:06.758Z,4.20
2022-11-06T22:49:06.757Z,3.20
2022-11-06T22:50:06.739Z,3.90
2022-11-06T22:51:06.745Z,4.20
2022-11-06T22:52:06.685Z,3.80
2022-11-06T22:53:09.488Z,3.30
2022-11-06T22:54:07.684Z,2.90
2022-11-06T22:55:06.677Z,2.50
2022-11-06T22:56:06.707Z,2.60
2022-11-06T22:57:06.623Z,2.10
2022-11-06T22:58:06.613Z,4.10
2022-11-06T22:59:06.607Z,2.30
2022-11-06T23:00:06.608Z,3.20
2022-11-06T23:01:06.770Z,2.90
2022-11-06T23:02:06.749Z,5.10
2022-11-06T23:03:06.635Z,5.90
2022-11-06T23:04:06.584Z,4.20
2022-11-06T23:05:06.539Z,4.20
2022-11-06T23:06:06.512Z,3.20
2022-11-06T23:07:06.535Z,3.40
2022-11-06T23:08:06.501Z,2.50
2022-11-06T23:09:06.489Z,2.60
2022-11-06T23:10:06.472Z,4.30
2022-11-06T23:11:06.462Z,2.90
2022-11-06T23:12:06.448Z,2.10
2022-11-06T23:13:06.432Z,3.40
2022-11-06T23:14:09.253Z,2.20
2022-11-06T23:15:06.409Z,4.60
2022-11-06T23:16:06.395Z,3.00
2022-11-06T23:17:06.407Z,2.60
2022-11-06T23:18:06.398Z,3.80
2022-11-06T23:19:06.358Z,3.50
2022-11-06T23:20:06.358Z,3.00
2022-11-06T23:21:06.363Z,3.00
2022-11-06T23:22:06.331Z,3.80
2022-11-06T23:23:06.384Z,2.50
2022-11-06T23:24:06.299Z,2.40
2022-11-06T23:25:06.316Z,3.10
2022-11-06T23:26:06.304Z,3.50
2022-11-06T23:27:06.243Z,3.70
2022-11-06T23:28:06.237Z,3.70
2022-11-06T23:29:06.214Z,2.60
2022-11-06T23:30:06.251Z,3.90
2022-11-06T23:31:06.184Z,2.40
2022-11-06T23:32:06.223Z,2.70
2022-11-06T23:33:06.193Z,3.30
2022-11-06T23:34:06.209Z,3.60
2022-11-06T23:35:09.175Z,3.30
2022-11-06T23:36:07.229Z,4.40
2022-11-06T23:37:06.121Z,4.10
2022-11-06T23:38:06.110Z,3.40
2022-11-06T23:39:06.092Z,3.00
2022-11-06T23:40:06.100Z,3.40
2022-11-06T23:41:06.116Z,3.80
2022-11-06T23:42:06.064Z,3.90
2022-11-06T23:43:06.058Z,5.10
2022-11-06T23:44:06.019Z,3.00
2022-11-06T23:45:06.012Z,4.40
2022-11-06T23:46:06.028Z,3.80
2022-11-06T23:47:05.987Z,3.90
2022-11-06T23:48:08.599Z,2.80
2022-11-06T23:49:05.966Z,3.10
2022-11-06T23:50:05.946Z,3.10
2022-11-06T23:51:05.998Z,2.30
2022-11-06T23:52:05.956Z,3.20
2022-11-06T23:53:05.906Z,4.40
2022-11-06T23:54:05.937Z,2.40
2022-11-06T23:55:05.895Z,2.50
2022-11-06T23:56:05.925Z,3.10
2022-11-06T23:57:05.875Z,3.90
2022-11-06T23:58:05.844Z,3.00
2022-11-06T23:59:05.843Z,3.40
